createdAt,value
2023-02-16T00:01:54.114Z,34.55
2023-02-16T00:04:27.110Z,36.22
2023-02-16T00:06:54.907Z,36.38
2023-02-16T00:09:22.875Z,34.83
2023-02-16T00:12:23.748Z,35.95
2023-02-16T00:14:50.310Z,31.90
2023-02-16T00:17:16.852Z,32.50
2023-02-16T00:19:43.433Z,34.22
2023-02-16T00:22:11.418Z,35.70
2023-02-16T00:24:38.014Z,34.15
2023-02-16T00:27:13.238Z,34.60
2023-02-16T00:29:39.835Z,35.28
2023-02-16T00:32:12.644Z,35.20
2023-02-16T00:34:43.033Z,35.22
2023-02-16T00:37:12.132Z,33.67
2023-02-16T00:39:40.299Z,36.20
2023-02-16T00:42:21.341Z,32.85
2023-02-16T00:44:54.169Z,31.48
2023-02-16T00:47:27.608Z,31.75
2023-02-16T00:49:56.407Z,31.90
2023-02-16T00:52:33.884Z,35.03
2023-02-16T00:55:04.040Z,33.42
2023-02-16T00:57:35.562Z,32.65
2023-02-16T01:00:13.083Z,33.78
2023-02-16T01:02:39.677Z,34.50
2023-02-16T01:05:06.738Z,36.33
2023-02-16T01:07:54.823Z,39.80
2023-02-16T01:10:40.021Z,35.80
2023-02-16T01:13:06.850Z,34.53
2023-02-16T01:15:34.711Z,34.33
2023-02-16T01:18:01.452Z,35.55
2023-02-16T01:20:28.747Z,37.88
2023-02-16T01:22:55.447Z,38.33
2023-02-16T01:25:22.198Z,38.53
2023-02-16T01:27:48.812Z,38.00
2023-02-16T01:30:22.784Z,36.58
2023-02-16T01:32:51.773Z,36.92
2023-02-16T01:35:20.464Z,36.55
2023-02-16T01:37:47.317Z,37.40
2023-02-16T01:40:35.106Z,36.45
2023-02-16T01:43:10.746Z,36.33
2023-02-16T01:45:43.177Z,35.70
2023-02-16T01:48:22.200Z,35.40
2023-02-16T01:51:20.491Z,35.60
2023-02-16T01:54:06.732Z,39.42
2023-02-16T01:56:41.722Z,36.45
2023-02-16T01:59:18.031Z,34.60
2023-02-16T02:02:12.119Z,36.83
2023-02-16T02:05:10.298Z,38.85
2023-02-16T02:08:30.887Z,37.05
2023-02-16T02:11:23.863Z,38.83
2023-02-16T02:14:01.006Z,36.40
2023-02-16T02:18:55.217Z,37.88
2023-02-16T02:22:17.610Z,35.63
2023-02-16T02:25:06.206Z,38.92
2023-02-16T02:27:57.316Z,37.85
2023-02-16T02:30:31.660Z,38.65
2023-02-16T02:32:58.210Z,36.88
2023-02-16T02:35:37.125Z,42.25
2023-02-16T02:38:41.830Z,35.40
2023-02-16T02:41:53.224Z,36.88
2023-02-16T02:44:27.030Z,38.22
2023-02-16T02:46:53.761Z,37.17
2023-02-16T02:49:20.331Z,39.90
2023-02-16T02:51:47.568Z,37.55
2023-02-16T02:54:38.912Z,40.08
2023-02-16T02:57:40.088Z,37.05
2023-02-16T03:00:32.000Z,36.22
2023-02-16T03:03:04.236Z,40.20
2023-02-16T03:05:32.981Z,37.35
2023-02-16T03:08:13.975Z,39.83
2023-02-16T03:11:05.603Z,37.28
2023-02-16T03:13:39.383Z,38.10
2023-02-16T03:16:12.316Z,38.13
2023-02-16T03:18:59.839Z,38.85
2023-02-16T03:21:46.980Z,38.00
2023-02-16T03:24:45.154Z,42.90
2023-02-16T03:27:32.934Z,35.47
2023-02-16T03:30:01.275Z,38.10
2023-02-16T03:32:28.038Z,39.97
2023-02-16T03:34:54.650Z,40.25
2023-02-16T03:37:21.201Z,39.15
2023-02-16T03:40:07.774Z,35.88
2023-02-16T03:42:34.351Z,39.13
2023-02-16T03:45:00.904Z,34.30
2023-02-16T03:47:27.503Z,35.90
2023-02-16T03:49:54.067Z,38.22
2023-02-16T03:52:20.659Z,39.83
2023-02-16T03:54:47.199Z,40.70
2023-02-16T03:57:13.809Z,39.70
2023-02-16T03:59:40.323Z,40.42
2023-02-16T04:02:06.903Z,38.50
2023-02-16T04:04:33.572Z,38.25
2023-02-16T04:07:00.151Z,37.20
2023-02-16T04:09:26.671Z,39.38
2023-02-16T04:12:11.762Z,37.90
2023-02-16T04:14:38.250Z,38.97
2023-02-16T04:17:04.812Z,37.67
2023-02-16T04:19:31.322Z,39.17
2023-02-16T04:21:57.801Z,39.97
2023-02-16T04:24:24.283Z,35.35
2023-02-16T04:26:50.880Z,34.90
2023-02-16T04:29:17.427Z,40.20
2023-02-16T04:31:44.137Z,34.17
2023-02-16T04:34:10.907Z,38.25
2023-02-16T04:36:37.455Z,39.38
2023-02-16T04:39:04.398Z,36.95
2023-02-16T04:41:30.958Z,38.10
2023-02-16T04:43:57.649Z,38.22
2023-02-16T04:46:24.490Z,39.05
2023-02-16T04:48:51.007Z,37.17
2023-02-16T04:51:17.565Z,39.30
2023-02-16T04:53:44.323Z,39.67
2023-02-16T04:56:11.935Z,38.53
2023-02-16T04:58:38.723Z,40.75
2023-02-16T05:01:05.749Z,38.97
2023-02-16T05:03:33.097Z,37.97
2023-02-16T05:05:59.919Z,39.83
2023-02-16T05:08:26.776Z,40.28
2023-02-16T05:11:12.142Z,41.35
2023-02-16T05:13:57.216Z,40.28
2023-02-16T05:16:24.429Z,36.53
2023-02-16T05:18:51.055Z,38.38
2023-02-16T05:21:32.694Z,41.45
2023-02-16T05:23:59.796Z,37.83
2023-02-16T05:26:27.012Z,35.25
2023-02-16T05:28:53.922Z,39.97
2023-02-16T05:31:21.398Z,37.85
2023-02-16T05:33:48.088Z,39.25
2023-02-16T05:36:14.747Z,41.55
2023-02-16T05:38:41.648Z,37.95
2023-02-16T05:41:08.158Z,41.85
2023-02-16T05:43:34.918Z,35.88
2023-02-16T05:46:08.258Z,37.00
2023-02-16T05:48:34.853Z,38.80
2023-02-16T05:51:01.850Z,39.05
2023-02-16T05:53:28.595Z,39.35
2023-02-16T05:55:55.084Z,38.97
2023-02-16T05:58:21.680Z,37.80
2023-02-16T06:00:48.164Z,40.20
2023-02-16T06:03:14.651Z,39.47
2023-02-16T06:05:41.268Z,38.60
2023-02-16T06:08:08.134Z,39.05
2023-02-16T06:10:34.680Z,38.03
2023-02-16T06:13:01.180Z,38.85
2023-02-16T06:15:27.991Z,38.03
2023-02-16T06:17:54.605Z,37.28
2023-02-16T06:20:21.096Z,37.47
2023-02-16T06:22:47.667Z,39.70
2023-02-16T06:25:14.208Z,38.40
2023-02-16T06:27:40.698Z,37.20
2023-02-16T06:30:08.629Z,36.38
2023-02-16T06:32:35.214Z,36.80
2023-02-16T06:35:01.745Z,37.15
2023-02-16T06:37:28.313Z,38.83
2023-02-16T06:39:54.784Z,38.35
2023-02-16T06:42:21.526Z,34.30
2023-02-16T06:44:48.064Z,34.53
2023-02-16T06:47:14.596Z,37.22
2023-02-16T06:49:41.149Z,33.33
2023-02-16T06:52:08.048Z,35.45
2023-02-16T06:54:34.605Z,32.67
2023-02-16T06:57:01.124Z,35.33
2023-02-16T06:59:27.602Z,33.30
2023-02-16T07:01:54.116Z,37.05
2023-02-16T07:04:20.684Z,35.13
2023-02-16T07:06:47.258Z,35.80
2023-02-16T07:09:13.789Z,34.67
2023-02-16T07:11:40.587Z,35.80
2023-02-16T07:14:07.121Z,35.20
2023-02-16T07:16:33.687Z,38.03
2023-02-16T07:19:00.212Z,37.30
2023-02-16T07:21:26.806Z,34.47
2023-02-16T07:23:53.366Z,35.78
2023-02-16T07:26:19.898Z,35.28
2023-02-16T07:28:46.457Z,35.83
2023-02-16T07:31:15.200Z,34.22
2023-02-16T07:33:42.530Z,36.42
2023-02-16T07:36:10.613Z,35.75
2023-02-16T07:38:37.679Z,37.35
2023-02-16T07:41:07.803Z,36.72
2023-02-16T07:43:35.735Z,34.78
2023-02-16T07:46:02.308Z,35.30
2023-02-16T07:48:28.868Z,34.50
2023-02-16T07:50:55.430Z,34.28
2023-02-16T07:53:22.005Z,35.08
2023-02-16T07:55:48.616Z,35.75
2023-02-16T07:58:27.391Z,34.75
2023-02-16T08:00:56.544Z,33.65
2023-02-16T08:03:24.096Z,34.80
2023-02-16T08:05:50.772Z,32.33
2023-02-16T08:08:17.331Z,33.60
2023-02-16T08:10:43.916Z,31.80
2023-02-16T08:13:10.445Z,33.60
2023-02-16T08:15:36.949Z,31.52
2023-02-16T08:18:03.837Z,31.23
2023-02-16T08:20:48.245Z,31.48
2023-02-16T08:23:16.869Z,34.08
2023-02-16T08:25:44.005Z,30.60
2023-02-16T08:28:14.652Z,33.05
2023-02-16T08:30:41.133Z,29.80
2023-02-16T08:33:07.637Z,29.70
2023-02-16T08:35:38.463Z,30.75
2023-02-16T08:38:07.691Z,29.05
2023-02-16T08:40:34.152Z,29.13
2023-02-16T08:43:00.630Z,30.30
2023-02-16T08:45:27.270Z,31.02
2023-02-16T08:47:54.034Z,32.65
2023-02-16T08:50:20.584Z,28.80
2023-02-16T08:52:47.269Z,32.38
2023-02-16T08:55:13.985Z,29.88
2023-02-16T08:57:40.746Z,28.83
2023-02-16T09:00:26.321Z,29.65
2023-02-16T09:02:52.806Z,29.25
2023-02-16T09:05:19.331Z,30.55
2023-02-16T09:07:45.827Z,29.85
2023-02-16T09:10:12.751Z,29.83
2023-02-16T09:12:39.295Z,31.20
2023-02-16T09:15:05.956Z,30.50
2023-02-16T09:17:32.558Z,30.60
2023-02-16T09:19:59.047Z,32.45
2023-02-16T09:22:25.710Z,29.92
2023-02-16T09:24:52.699Z,31.15
2023-02-16T09:27:20.104Z,30.42
2023-02-16T09:29:46.641Z,29.02
2023-02-16T09:32:13.153Z,31.33
2023-02-16T09:34:39.688Z,32.13
2023-02-16T09:37:06.323Z,31.77
2023-02-16T09:39:33.693Z,30.35
2023-02-16T09:42:11.653Z,30.38
2023-02-16T09:44:44.497Z,29.88
2023-02-16T09:47:26.130Z,31.20
2023-02-16T09:49:56.387Z,31.67
2023-02-16T09:52:36.919Z,29.60
2023-02-16T09:55:13.112Z,31.85
2023-02-16T09:58:11.161Z,31.05
2023-02-16T10:01:05.497Z,30.55
2023-02-16T10:03:55.423Z,31.17
2023-02-16T10:06:33.882Z,33.30
2023-02-16T10:09:12.590Z,30.60
2023-02-16T10:11:49.529Z,30.40
2023-02-16T10:14:33.569Z,30.27
2023-02-16T10:17:19.151Z,33.05
2023-02-16T10:20:24.835Z,31.40
2023-02-16T10:22:57.797Z,30.00
2023-02-16T10:25:32.965Z,29.75
2023-02-16T10:28:15.965Z,31.95
2023-02-16T10:30:52.087Z,33.97
2023-02-16T10:33:42.064Z,31.88
2023-02-16T10:36:27.350Z,32.65
2023-02-16T10:39:18.220Z,33.17
2023-02-16T10:41:50.568Z,34.60
2023-02-16T10:44:25.990Z,33.47
2023-02-16T10:47:00.455Z,33.50
2023-02-16T10:49:29.667Z,34.05
2023-02-16T10:51:57.483Z,34.05
2023-02-16T10:54:27.267Z,34.10
2023-02-16T10:56:59.515Z,32.45
2023-02-16T10:59:33.745Z,34.13
2023-02-16T11:02:04.212Z,32.03
2023-02-16T11:04:34.575Z,35.88
2023-02-16T11:07:10.732Z,34.30
2023-02-16T11:09:38.359Z,30.88
2023-02-16T11:12:23.463Z,32.88
2023-02-16T11:14:53.757Z,33.30
2023-02-16T11:17:22.543Z,34.67
2023-02-16T11:20:05.480Z,32.75
2023-02-16T11:25:22.024Z,34.50
2023-02-16T11:28:07.057Z,32.45
2023-02-16T11:30:38.219Z,36.38
2023-02-16T11:33:22.203Z,36.13
2023-02-16T11:35:49.248Z,29.88
2023-02-16T11:38:34.259Z,32.75
2023-02-16T11:41:03.727Z,33.50
2023-02-16T11:43:38.621Z,34.72
2023-02-16T11:46:14.637Z,35.03
2023-02-16T11:48:41.275Z,33.53
2023-02-16T11:51:09.444Z,35.40
2023-02-16T11:53:40.556Z,36.10
2023-02-16T11:56:23.147Z,36.15
2023-02-16T11:59:21.679Z,34.95
2023-02-16T12:02:12.293Z,34.35
2023-02-16T12:04:54.064Z,34.15
2023-02-16T12:07:40.312Z,36.78
2023-02-16T12:10:19.970Z,34.78
2023-02-16T12:12:46.501Z,35.03
2023-02-16T12:15:34.933Z,35.40
2023-02-16T12:18:26.844Z,35.53
2023-02-16T12:21:11.482Z,35.15
2023-02-16T12:24:09.265Z,34.05
2023-02-16T12:26:40.854Z,35.17
2023-02-16T12:29:26.203Z,32.20
2023-02-16T12:32:10.544Z,34.78
2023-02-16T12:34:59.560Z,35.50
2023-02-16T12:37:47.931Z,35.17
2023-02-16T12:40:36.256Z,32.42
2023-02-16T12:43:21.635Z,31.77
2023-02-16T12:45:49.610Z,31.48
2023-02-16T12:48:41.708Z,31.95
2023-02-16T12:51:20.209Z,33.03
2023-02-16T12:54:04.303Z,33.60
2023-02-16T12:56:42.553Z,31.10
2023-02-16T12:59:46.984Z,31.70
2023-02-16T13:02:36.434Z,30.25
2023-02-16T13:05:09.558Z,27.80
2023-02-16T13:07:42.997Z,28.15
2023-02-16T13:10:38.374Z,27.15
2023-02-16T13:13:09.287Z,28.17
2023-02-16T13:15:58.513Z,27.33
2023-02-16T13:18:32.347Z,24.65
2023-02-16T13:21:21.875Z,25.48
2023-02-16T13:24:13.297Z,26.63
2023-02-16T13:27:05.685Z,26.40
2023-02-16T13:29:52.671Z,25.20
2023-02-16T13:32:45.139Z,24.92
2023-02-16T13:35:48.626Z,24.75
2023-02-16T13:38:50.974Z,25.85
2023-02-16T13:41:41.697Z,24.83
2023-02-16T13:44:14.596Z,27.45
2023-02-16T13:46:50.079Z,26.95
2023-02-16T13:49:42.368Z,25.25
2023-02-16T13:52:11.855Z,27.45
2023-02-16T13:54:41.896Z,24.45
2023-02-16T13:57:13.313Z,24.90
2023-02-16T13:59:39.729Z,25.52
2023-02-16T14:02:12.997Z,22.42
2023-02-16T14:04:39.613Z,25.48
2023-02-16T14:07:10.228Z,23.92
2023-02-16T14:09:36.778Z,23.52
2023-02-16T14:12:17.553Z,24.58
2023-02-16T14:14:58.898Z,24.95
2023-02-16T14:17:29.174Z,23.80
2023-02-16T14:20:00.604Z,24.67
2023-02-16T14:22:33.245Z,23.17
2023-02-16T14:27:47.447Z,22.17
2023-02-16T14:30:31.202Z,23.30
2023-02-16T14:33:12.997Z,22.77
2023-02-16T14:35:42.854Z,22.52
2023-02-16T14:38:27.520Z,21.00
2023-02-16T14:41:03.240Z,20.95
2023-02-16T14:43:42.787Z,20.48
2023-02-16T14:46:42.342Z,19.15
2023-02-16T14:49:29.009Z,18.35
2023-02-16T14:52:28.658Z,18.35
2023-02-16T14:55:01.716Z,17.73
2023-02-16T14:57:37.879Z,18.92
2023-02-16T15:00:13.494Z,19.13
2023-02-16T15:02:54.089Z,18.95
2023-02-16T15:05:29.579Z,17.27
2023-02-16T15:08:25.279Z,18.50
2023-02-16T15:10:56.167Z,17.85
2023-02-16T15:13:27.999Z,17.65
2023-02-16T15:15:57.660Z,19.05
2023-02-16T15:18:28.356Z,17.27
2023-02-16T15:20:57.362Z,19.02
2023-02-16T15:23:29.458Z,17.73
2023-02-16T15:26:02.996Z,17.73
2023-02-16T15:28:39.305Z,17.00
2023-02-16T15:31:18.585Z,17.50
2023-02-16T15:34:00.602Z,17.35
2023-02-16T15:36:42.540Z,17.87
2023-02-16T15:39:15.148Z,17.87
2023-02-16T15:44:35.419Z,18.33
2023-02-16T15:47:16.551Z,17.30
2023-02-16T15:49:43.848Z,17.85
2023-02-16T15:52:17.858Z,17.67
2023-02-16T15:54:46.631Z,18.50
2023-02-16T15:57:30.862Z,19.33
2023-02-16T16:00:00.580Z,19.75
2023-02-16T16:02:36.385Z,18.05
2023-02-16T16:05:05.879Z,19.05
2023-02-16T16:07:39.912Z,19.45
2023-02-16T16:10:19.880Z,19.65
2023-02-16T16:12:48.902Z,19.10
2023-02-16T16:15:22.804Z,19.08
2023-02-16T16:17:51.237Z,20.45
2023-02-16T16:20:29.263Z,20.38
2023-02-16T16:23:04.450Z,20.45
2023-02-16T16:25:34.048Z,20.05
2023-02-16T16:28:01.846Z,19.83
2023-02-16T16:30:32.029Z,20.38
2023-02-16T16:33:07.564Z,20.20
2023-02-16T16:35:38.471Z,20.20
2023-02-16T16:38:07.664Z,21.02
2023-02-16T16:40:36.785Z,21.90
2023-02-16T16:43:03.257Z,20.73
2023-02-16T16:45:44.779Z,23.35
2023-02-16T16:48:31.699Z,22.08
2023-02-16T16:51:16.877Z,22.00
2023-02-16T16:54:06.263Z,23.70
2023-02-16T16:56:39.333Z,24.25
2023-02-16T16:59:06.643Z,22.02
2023-02-16T17:01:34.061Z,22.33
2023-02-16T17:04:00.812Z,22.98
2023-02-16T17:06:27.625Z,22.85
2023-02-16T17:08:55.231Z,25.98
2023-02-16T17:11:27.545Z,24.92
2023-02-16T17:13:55.673Z,25.48
2023-02-16T17:16:31.378Z,23.73
2023-02-16T17:18:58.019Z,25.20
2023-02-16T17:21:24.550Z,24.25
2023-02-16T17:23:53.362Z,24.23
2023-02-16T17:26:21.972Z,25.63
2023-02-16T17:28:48.818Z,24.67
2023-02-16T17:31:15.973Z,24.80
2023-02-16T17:33:42.727Z,24.52
2023-02-16T17:36:14.145Z,26.17
2023-02-16T17:38:40.701Z,24.35
2023-02-16T17:41:19.022Z,25.13
2023-02-16T17:43:45.680Z,24.35
2023-02-16T17:46:13.335Z,25.73
2023-02-16T17:48:40.812Z,25.48
2023-02-16T17:51:15.002Z,23.33
2023-02-16T17:53:41.760Z,26.45
2023-02-16T17:56:16.557Z,24.17
2023-02-16T17:58:43.768Z,24.58
2023-02-16T18:01:13.832Z,24.92
2023-02-16T18:03:40.523Z,24.52
2023-02-16T18:06:07.503Z,24.48
2023-02-16T18:08:34.130Z,26.35
2023-02-16T18:11:03.624Z,24.88
2023-02-16T18:13:30.970Z,26.17
2023-02-16T18:15:59.114Z,25.02
2023-02-16T18:18:25.809Z,26.52
2023-02-16T18:20:52.328Z,25.27
2023-02-16T18:23:18.874Z,23.65
2023-02-16T18:25:45.767Z,24.58
2023-02-16T18:28:27.103Z,23.98
2023-02-16T18:30:53.934Z,23.67
2023-02-16T18:33:21.809Z,24.40
2023-02-16T18:35:54.013Z,22.55
2023-02-16T18:38:22.079Z,24.30
2023-02-16T18:40:49.649Z,24.40
2023-02-16T18:43:16.205Z,24.08
2023-02-16T18:45:42.875Z,22.27
2023-02-16T18:48:10.297Z,22.63
2023-02-16T18:50:36.922Z,22.48
2023-02-16T18:53:03.849Z,22.52
2023-02-16T18:55:33.068Z,22.20
2023-02-16T18:58:00.977Z,20.95
2023-02-16T19:00:28.203Z,21.95
2023-02-16T19:02:55.877Z,23.13
2023-02-16T19:05:22.994Z,23.90
2023-02-16T19:07:49.665Z,23.50
2023-02-16T19:10:16.683Z,23.55
2023-02-16T19:12:43.197Z,24.25
2023-02-16T19:15:09.819Z,24.05
2023-02-16T19:17:38.488Z,22.90
2023-02-16T19:20:09.680Z,24.70
2023-02-16T19:22:37.268Z,25.30
2023-02-16T19:25:05.750Z,25.88
2023-02-16T19:27:32.654Z,25.88
2023-02-16T19:29:59.355Z,27.33
2023-02-16T19:32:25.948Z,25.63
2023-02-16T19:34:52.468Z,27.15
2023-02-16T19:37:19.122Z,26.10
2023-02-16T19:39:45.648Z,24.83
2023-02-16T19:42:12.138Z,24.83
2023-02-16T19:44:39.734Z,24.48
2023-02-16T19:47:06.707Z,25.80
2023-02-16T19:49:35.052Z,25.38
2023-02-16T19:52:03.981Z,25.45
2023-02-16T19:54:34.634Z,25.67
2023-02-16T19:57:02.229Z,25.48
2023-02-16T19:59:29.166Z,28.95
2023-02-16T20:01:55.752Z,27.70
2023-02-16T20:04:22.335Z,30.17
2023-02-16T20:06:49.617Z,27.65
2023-02-16T20:09:17.919Z,28.63
2023-02-16T20:11:44.860Z,28.90
2023-02-16T20:14:12.387Z,28.63
2023-02-16T20:16:39.839Z,29.00
2023-02-16T20:19:06.499Z,29.30
2023-02-16T20:21:33.448Z,28.55
2023-02-16T20:24:02.566Z,27.13
2023-02-16T20:26:41.534Z,28.75
2023-02-16T20:29:10.839Z,29.55
2023-02-16T20:31:47.690Z,26.40
2023-02-16T20:34:14.951Z,27.38
2023-02-16T20:36:41.526Z,29.10
2023-02-16T20:39:08.280Z,27.33
2023-02-16T20:41:34.811Z,28.52
2023-02-16T20:44:02.843Z,27.58
2023-02-16T20:46:29.834Z,27.38
2023-02-16T20:48:56.501Z,26.50
2023-02-16T20:51:23.078Z,28.23
2023-02-16T20:53:49.720Z,27.65
2023-02-16T20:56:21.150Z,27.70
2023-02-16T20:58:49.748Z,29.37
2023-02-16T21:01:19.286Z,29.17
2023-02-16T21:03:45.989Z,27.90
2023-02-16T21:06:12.489Z,26.58
2023-02-16T21:08:39.056Z,30.83
2023-02-16T21:11:05.687Z,29.02
2023-02-16T21:13:32.862Z,28.83
2023-02-16T21:15:59.422Z,29.17
2023-02-16T21:18:26.183Z,28.00
2023-02-16T21:20:52.719Z,28.55
2023-02-16T21:23:19.345Z,30.02
2023-02-16T21:25:45.920Z,27.95
2023-02-16T21:28:12.935Z,27.58
2023-02-16T21:30:41.362Z,27.83
2023-02-16T21:33:07.902Z,28.90
2023-02-16T21:35:34.531Z,29.17
2023-02-16T21:38:01.449Z,30.00
2023-02-16T21:40:46.672Z,29.05
2023-02-16T21:43:13.207Z,28.42
2023-02-16T21:45:39.710Z,30.75
2023-02-16T21:48:24.925Z,30.95
2023-02-16T21:50:51.542Z,28.85
2023-02-16T21:53:18.054Z,31.55
2023-02-16T21:56:03.409Z,30.45
2023-02-16T21:58:33.597Z,31.65
2023-02-16T22:01:00.464Z,30.15
2023-02-16T22:03:27.793Z,28.45
2023-02-16T22:05:54.321Z,29.63
2023-02-16T22:08:20.925Z,30.90
2023-02-16T22:10:47.403Z,30.30
2023-02-16T22:13:13.867Z,29.77
2023-02-16T22:15:40.442Z,28.42
2023-02-16T22:18:07.155Z,31.65
2023-02-16T22:20:33.832Z,29.77
2023-02-16T22:23:00.320Z,29.52
2023-02-16T22:25:26.953Z,31.10
2023-02-16T22:27:53.531Z,28.85
2023-02-16T22:30:20.247Z,29.08
2023-02-16T22:32:48.672Z,29.65
2023-02-16T22:35:15.313Z,28.05
2023-02-16T22:37:41.805Z,29.98
2023-02-16T22:40:08.571Z,29.52
2023-02-16T22:42:36.208Z,30.85
2023-02-16T22:45:03.563Z,27.48
2023-02-16T22:47:31.174Z,28.42
2023-02-16T22:49:57.656Z,27.98
2023-02-16T22:52:24.216Z,28.05
2023-02-16T22:54:51.654Z,25.67
2023-02-16T22:57:18.712Z,25.75
2023-02-16T22:59:45.516Z,26.00
2023-02-16T23:02:12.049Z,25.85
2023-02-16T23:04:38.714Z,26.00
2023-02-16T23:07:05.584Z,25.77
2023-02-16T23:09:32.303Z,26.35
2023-02-16T23:11:58.983Z,24.30
2023-02-16T23:14:26.036Z,25.98
2023-02-16T23:16:54.689Z,24.77
2023-02-16T23:19:24.919Z,24.02
2023-02-16T23:21:52.183Z,23.98
2023-02-16T23:24:21.659Z,24.42
2023-02-16T23:26:48.502Z,25.10
2023-02-16T23:29:15.118Z,22.60
2023-02-16T23:31:43.410Z,24.20
2023-02-16T23:34:11.483Z,23.45
2023-02-16T23:36:38.096Z,21.75
2023-02-16T23:39:11.672Z,21.73
2023-02-16T23:41:38.683Z,21.30
2023-02-16T23:44:06.146Z,20.45
2023-02-16T23:46:32.772Z,21.08
2023-02-16T23:48:59.340Z,21.23
2023-02-16T23:51:26.325Z,19.90
2023-02-16T23:53:53.134Z,22.20
2023-02-16T23:56:24.964Z,22.48
2023-02-16T23:58:52.254Z,22.67
